KSMX/SMX METAR and TAF weather

Enter ICAO airport designator
Station Type Date Time Source
KSMX METAR 2022/06/30 12:51 UTC NOAA

KSMX 301251Z AUTO 25005KT 5SM BR OVC003 12/11 A3005 RMK AO2 SLP180 T01170106


Station Type Date Time Source
KSMX Decoded METAR 2022/06/30 12:51 UTC NOAA

SANTA MARIA PUBLIC AIRPORT, CA, United States (KSMX) 34-54N 120-28W 74M
Jun 30, 2022 - 08:51 AM EDT / 2022.06.30 1251 UTC
Wind: from the WSW (250 degrees) at 6 MPH (5 KT):0
Visibility: 5 mile(s):0
Sky conditions: overcast
Weather: mist
Temperature: 53.1 F (11.7 C)
Dew Point: 51.1 F (10.6 C)
Relative Humidity: 92%
Pressure (altimeter): 30.05 in. Hg (1017 hPa)
ob: KSMX 301251Z AUTO 25005KT 5SM BR OVC003 12/11 A3005 RMK AO2 SLP180 T01170106
cycle: 13

Station Type Date Time Source
KSMX TAF 2022/06/30 12:40 UTC NOAA

TAF KSMX 301137Z 3012/0112 VRB03KT 5SM BR OVC004
FM301600 VRB03KT 6SM BR OVC007
FM301800 30006KT P6SM SKC
FM302000 31012KT P6SM SKC
FM010400 VRB03KT P6SM BKN006
FM010800 VRB03KT 4SM BR OVC004

Example: see airport list